Itapebi, Brazil
Current Conditions -  °F | °C
As of 7:00 AM on Friday 31 Oct 2014 (Local Time) from SBPS Reporting Station
Light Rain Light Rain  
Wind Chill: 77°   Ceiling: 5000
Heat Index: 78°   Visibility: 4mi
Dew Point: 72°   Wind: 9mph
Humidity: 83%   Direction: 70°ENE
Pressure: 30.03"   Gusts: NA
Location:  15.95°S, 39.53°W
Report Text: SBPS 311000Z 07008KT 6000 -RA SCT010 SCT020 BKN050 25/22 Q1017
Loading
Personal Weather Stations






























Interactive Weather Map New forecast layout! Learn more

10-Day Weather Forecast

Advertisements
Track Severe Weather on mobile